sensor_id;sensor_type;location;lat;lon;timestamp;pressure;altitude;pressure_sealevel;temperature
49567;BMP280;35472;50.514;30.448;2024-02-04T00:01:19;98683.72;;;7.66
49567;BMP280;35472;50.514;30.448;2024-02-04T00:03:45;98698.94;;;7.69
49567;BMP280;35472;50.514;30.448;2024-02-04T00:06:10;98691.38;;;7.87
49567;BMP280;35472;50.514;30.448;2024-02-04T00:08:36;98691.91;;;8.02
49567;BMP280;35472;50.514;30.448;2024-02-04T00:11:02;98702.38;;;7.93
49567;BMP280;35472;50.514;30.448;2024-02-04T00:13:31;98694.00;;;7.68
49567;BMP280;35472;50.514;30.448;2024-02-04T00:15:57;98702.75;;;7.72
49567;BMP280;35472;50.514;30.448;2024-02-04T00:18:24;98706.28;;;7.65
49567;BMP280;35472;50.514;30.448;2024-02-04T00:20:49;98705.44;;;7.72
49567;BMP280;35472;50.514;30.448;2024-02-04T00:23:15;98710.06;;;7.14
49567;BMP280;35472;50.514;30.448;2024-02-04T00:25:40;98712.50;;;7.32
49567;BMP280;35472;50.514;30.448;2024-02-04T00:28:07;98702.47;;;7.39
49567;BMP280;35472;50.514;30.448;2024-02-04T00:30:33;98707.09;;;7.09
49567;BMP280;35472;50.514;30.448;2024-02-04T00:32:58;98714.06;;;7.03
49567;BMP280;35472;50.514;30.448;2024-02-04T00:35:30;98704.84;;;7.34
49567;BMP280;35472;50.514;30.448;2024-02-04T00:37:56;98702.38;;;7.47
49567;BMP280;35472;50.514;30.448;2024-02-04T00:40:21;98698.53;;;7.48
49567;BMP280;35472;50.514;30.448;2024-02-04T00:42:46;98703.41;;;7.29
49567;BMP280;35472;50.514;30.448;2024-02-04T00:45:14;98695.44;;;7.49
49567;BMP280;35472;50.514;30.448;2024-02-04T00:47:39;98710.69;;;7.52
49567;BMP280;35472;50.514;30.448;2024-02-04T00:50:05;98713.53;;;7.42
49567;BMP280;35472;50.514;30.448;2024-02-04T00:52:31;98709.25;;;7.48
49567;BMP280;35472;50.514;30.448;2024-02-04T00:54:57;98706.66;;;7.40
49567;BMP280;35472;50.514;30.448;2024-02-04T00:57:23;98704.56;;;7.25
49567;BMP280;35472;50.514;30.448;2024-02-04T00:59:48;98708.50;;;7.43
49567;BMP280;35472;50.514;30.448;2024-02-04T01:02:15;98703.47;;;7.49
49567;BMP280;35472;50.514;30.448;2024-02-04T01:04:41;98702.59;;;7.56
49567;BMP280;35472;50.514;30.448;2024-02-04T01:07:06;98698.41;;;7.55
49567;BMP280;35472;50.514;30.448;2024-02-04T01:09:34;98700.06;;;7.49
49567;BMP280;35472;50.514;30.448;2024-02-04T01:11:59;98698.00;;;7.56
49567;BMP280;35472;50.514;30.448;2024-02-04T01:14:24;98693.78;;;7.55
49567;BMP280;35472;50.514;30.448;2024-02-04T01:16:50;98692.72;;;7.76
49567;BMP280;35472;50.514;30.448;2024-02-04T01:19:15;98691.28;;;7.71
49567;BMP280;35472;50.514;30.448;2024-02-04T01:21:40;98689.53;;;7.61
49567;BMP280;35472;50.514;30.448;2024-02-04T01:24:06;98689.88;;;7.63
49567;BMP280;35472;50.514;30.448;2024-02-04T01:26:31;98693.00;;;7.58
49567;BMP280;35472;50.514;30.448;2024-02-04T01:28:56;98696.06;;;7.60
49567;BMP280;35472;50.514;30.448;2024-02-04T01:31:22;98690.63;;;7.64
49567;BMP280;35472;50.514;30.448;2024-02-04T01:33:47;98696.75;;;7.64
49567;BMP280;35472;50.514;30.448;2024-02-04T01:36:12;98699.50;;;7.61
49567;BMP280;35472;50.514;30.448;2024-02-04T01:38:38;98699.06;;;7.62
49567;BMP280;35472;50.514;30.448;2024-02-04T01:41:03;98710.13;;;7.64
49567;BMP280;35472;50.514;30.448;2024-02-04T01:43:29;98700.66;;;7.56
49567;BMP280;35472;50.514;30.448;2024-02-04T01:45:55;98707.47;;;7.64
49567;BMP280;35472;50.514;30.448;2024-02-04T01:48:21;98710.34;;;7.50
49567;BMP280;35472;50.514;30.448;2024-02-04T01:50:47;98700.78;;;7.49
49567;BMP280;35472;50.514;30.448;2024-02-04T01:53:17;98712.38;;;7.43
49567;BMP280;35472;50.514;30.448;2024-02-04T01:55:42;98718.72;;;7.52
49567;BMP280;35472;50.514;30.448;2024-02-04T01:58:08;98723.91;;;7.63
49567;BMP280;35472;50.514;30.448;2024-02-04T02:00:34;98729.31;;;7.59
49567;BMP280;35472;50.514;30.448;2024-02-04T02:02:59;98723.22;;;7.59
49567;BMP280;35472;50.514;30.448;2024-02-04T02:05:26;98722.72;;;7.67
49567;BMP280;35472;50.514;30.448;2024-02-04T02:07:51;98728.09;;;7.87
49567;BMP280;35472;50.514;30.448;2024-02-04T02:10:18;98733.53;;;7.83
49567;BMP280;35472;50.514;30.448;2024-02-04T02:12:56;98736.69;;;7.78
49567;BMP280;35472;50.514;30.448;2024-02-04T02:15:27;98719.06;;;7.54
49567;BMP280;35472;50.514;30.448;2024-02-04T02:17:58;98722.75;;;7.64
49567;BMP280;35472;50.514;30.448;2024-02-04T02:23:30;98732.28;;;7.65
49567;BMP280;35472;50.514;30.448;2024-02-04T02:25:57;98721.81;;;7.74
49567;BMP280;35472;50.514;30.448;2024-02-04T02:28:23;98718.09;;;7.68
49567;BMP280;35472;50.514;30.448;2024-02-04T02:30:48;98724.34;;;7.61
49567;BMP280;35472;50.514;30.448;2024-02-04T02:33:14;98728.66;;;7.78
49567;BMP280;35472;50.514;30.448;2024-02-04T02:35:39;98718.84;;;7.68
49567;BMP280;35472;50.514;30.448;2024-02-04T02:38:12;98715.16;;;7.85
49567;BMP280;35472;50.514;30.448;2024-02-04T02:40:47;98732.19;;;7.72
49567;BMP280;35472;50.514;30.448;2024-02-04T02:43:15;98728.97;;;7.80
49567;BMP280;35472;50.514;30.448;2024-02-04T02:45:43;98729.13;;;7.73
49567;BMP280;35472;50.514;30.448;2024-02-04T02:48:11;98731.13;;;7.66
49567;BMP280;35472;50.514;30.448;2024-02-04T02:50:38;98733.75;;;7.69
49567;BMP280;35472;50.514;30.448;2024-02-04T02:53:04;98723.97;;;7.86
49567;BMP280;35472;50.514;30.448;2024-02-04T02:55:29;98730.34;;;7.42
49567;BMP280;35472;50.514;30.448;2024-02-04T02:57:55;98728.38;;;7.73
49567;BMP280;35472;50.514;30.448;2024-02-04T03:00:20;98728.88;;;7.64
49567;BMP280;35472;50.514;30.448;2024-02-04T03:02:46;98721.19;;;7.66
49567;BMP280;35472;50.514;30.448;2024-02-04T03:05:15;98727.22;;;7.43
49567;BMP280;35472;50.514;30.448;2024-02-04T03:07:41;98710.88;;;7.42
49567;BMP280;35472;50.514;30.448;2024-02-04T03:10:06;98716.63;;;7.40
49567;BMP280;35472;50.514;30.448;2024-02-04T03:12:32;98702.09;;;7.64
49567;BMP280;35472;50.514;30.448;2024-02-04T03:14:57;98716.41;;;7.54
49567;BMP280;35472;50.514;30.448;2024-02-04T03:17:23;98705.22;;;7.32
49567;BMP280;35472;50.514;30.448;2024-02-04T03:19:51;98708.59;;;7.40
49567;BMP280;35472;50.514;30.448;2024-02-04T03:22:21;98713.56;;;7.38
49567;BMP280;35472;50.514;30.448;2024-02-04T03:24:49;98709.38;;;7.37
49567;BMP280;35472;50.514;30.448;2024-02-04T03:27:17;98712.38;;;7.12
49567;BMP280;35472;50.514;30.448;2024-02-04T03:29:44;98714.84;;;7.30
49567;BMP280;35472;50.514;30.448;2024-02-04T03:32:12;98714.66;;;7.17
49567;BMP280;35472;50.514;30.448;2024-02-04T03:34:38;98718.25;;;7.30
49567;BMP280;35472;50.514;30.448;2024-02-04T03:37:05;98711.84;;;7.24
49567;BMP280;35472;50.514;30.448;2024-02-04T03:39:31;98717.50;;;7.30
49567;BMP280;35472;50.514;30.448;2024-02-04T03:41:57;98720.22;;;7.26
49567;BMP280;35472;50.514;30.448;2024-02-04T03:44:22;98722.63;;;7.48
49567;BMP280;35472;50.514;30.448;2024-02-04T03:46:51;98723.78;;;7.47
49567;BMP280;35472;50.514;30.448;2024-02-04T03:49:18;98712.16;;;7.30
49567;BMP280;35472;50.514;30.448;2024-02-04T03:51:44;98714.59;;;7.48
49567;BMP280;35472;50.514;30.448;2024-02-04T03:54:09;98721.47;;;7.49
49567;BMP280;35472;50.514;30.448;2024-02-04T03:56:35;98728.16;;;7.33
49567;BMP280;35472;50.514;30.448;2024-02-04T03:59:00;98731.28;;;7.55
49567;BMP280;35472;50.514;30.448;2024-02-04T04:01:26;98729.16;;;7.43
49567;BMP280;35472;50.514;30.448;2024-02-04T04:03:51;98724.56;;;7.43
49567;BMP280;35472;50.514;30.448;2024-02-04T04:06:16;98727.78;;;7.31
49567;BMP280;35472;50.514;30.448;2024-02-04T04:08:42;98732.28;;;7.42
49567;BMP280;35472;50.514;30.448;2024-02-04T04:11:08;98739.72;;;7.54
49567;BMP280;35472;50.514;30.448;2024-02-04T04:13:34;98751.19;;;7.27
49567;BMP280;35472;50.514;30.448;2024-02-04T04:16:00;98745.56;;;7.49
49567;BMP280;35472;50.514;30.448;2024-02-04T04:18:26;98745.22;;;7.43
49567;BMP280;35472;50.514;30.448;2024-02-04T04:20:51;98748.94;;;7.53
49567;BMP280;35472;50.514;30.448;2024-02-04T04:23:16;98745.94;;;7.47
49567;BMP280;35472;50.514;30.448;2024-02-04T04:25:42;98744.16;;;7.37
49567;BMP280;35472;50.514;30.448;2024-02-04T04:28:09;98745.97;;;7.43
49567;BMP280;35472;50.514;30.448;2024-02-04T04:30:34;98741.41;;;7.17
49567;BMP280;35472;50.514;30.448;2024-02-04T04:33:00;98746.63;;;7.24
49567;BMP280;35472;50.514;30.448;2024-02-04T04:35:25;98751.94;;;7.28
49567;BMP280;35472;50.514;30.448;2024-02-04T04:37:51;98747.66;;;7.04
49567;BMP280;35472;50.514;30.448;2024-02-04T04:40:18;98750.34;;;7.30
49567;BMP280;35472;50.514;30.448;2024-02-04T04:42:43;98756.97;;;7.22
49567;BMP280;35472;50.514;30.448;2024-02-04T04:45:09;98761.50;;;7.29
49567;BMP280;35472;50.514;30.448;2024-02-04T04:47:36;98758.94;;;7.49
49567;BMP280;35472;50.514;30.448;2024-02-04T04:50:02;98761.41;;;7.63
49567;BMP280;35472;50.514;30.448;2024-02-04T04:52:28;98761.47;;;7.56
49567;BMP280;35472;50.514;30.448;2024-02-04T04:54:54;98755.91;;;7.43
49567;BMP280;35472;50.514;30.448;2024-02-04T04:57:20;98761.63;;;7.45
49567;BMP280;35472;50.514;30.448;2024-02-04T04:59:45;98767.78;;;7.42
49567;BMP280;35472;50.514;30.448;2024-02-04T05:02:10;98766.31;;;7.41
49567;BMP280;35472;50.514;30.448;2024-02-04T05:04:36;98759.44;;;7.36
49567;BMP280;35472;50.514;30.448;2024-02-04T05:07:01;98757.00;;;7.19
49567;BMP280;35472;50.514;30.448;2024-02-04T05:09:31;98761.41;;;7.32
49567;BMP280;35472;50.514;30.448;2024-02-04T05:11:56;98770.19;;;7.33
49567;BMP280;35472;50.514;30.448;2024-02-04T05:14:21;98754.53;;;7.35
49567;BMP280;35472;50.514;30.448;2024-02-04T05:16:47;98758.94;;;7.45
49567;BMP280;35472;50.514;30.448;2024-02-04T05:19:12;98757.28;;;7.28
49567;BMP280;35472;50.514;30.448;2024-02-04T05:21:39;98762.28;;;7.26
49567;BMP280;35472;50.514;30.448;2024-02-04T05:24:05;98765.34;;;7.24
49567;BMP280;35472;50.514;30.448;2024-02-04T05:26:31;98757.13;;;7.08
49567;BMP280;35472;50.514;30.448;2024-02-04T05:28:56;98762.25;;;6.95
49567;BMP280;35472;50.514;30.448;2024-02-04T05:31:21;98758.28;;;7.07
49567;BMP280;35472;50.514;30.448;2024-02-04T05:33:47;98768.81;;;7.21
49567;BMP280;35472;50.514;30.448;2024-02-04T05:36:12;98767.28;;;7.24
49567;BMP280;35472;50.514;30.448;2024-02-04T05:38:37;98764.78;;;7.10
49567;BMP280;35472;50.514;30.448;2024-02-04T05:41:05;98770.81;;;7.17
49567;BMP280;35472;50.514;30.448;2024-02-04T05:43:30;98769.25;;;7.47
49567;BMP280;35472;50.514;30.448;2024-02-04T05:45:55;98766.59;;;7.47
49567;BMP280;35472;50.514;30.448;2024-02-04T05:48:21;98767.91;;;7.35
49567;BMP280;35472;50.514;30.448;2024-02-04T05:50:46;98765.66;;;7.30
49567;BMP280;35472;50.514;30.448;2024-02-04T05:53:12;98767.16;;;7.31
49567;BMP280;35472;50.514;30.448;2024-02-04T05:55:37;98763.53;;;7.45
49567;BMP280;35472;50.514;30.448;2024-02-04T05:58:03;98768.44;;;7.23
49567;BMP280;35472;50.514;30.448;2024-02-04T06:00:29;98768.91;;;7.14
49567;BMP280;35472;50.514;30.448;2024-02-04T06:02:54;98771.13;;;7.19
49567;BMP280;35472;50.514;30.448;2024-02-04T06:05:19;98775.66;;;7.26
49567;BMP280;35472;50.514;30.448;2024-02-04T06:07:47;98775.72;;;7.19
49567;BMP280;35472;50.514;30.448;2024-02-04T06:10:13;98773.66;;;7.00
49567;BMP280;35472;50.514;30.448;2024-02-04T06:12:38;98781.09;;;6.85
49567;BMP280;35472;50.514;30.448;2024-02-04T06:15:13;98776.00;;;6.94
49567;BMP280;35472;50.514;30.448;2024-02-04T06:17:39;98773.66;;;7.03
49567;BMP280;35472;50.514;30.448;2024-02-04T06:20:05;98772.03;;;7.09
49567;BMP280;35472;50.514;30.448;2024-02-04T06:22:30;98773.88;;;7.16
49567;BMP280;35472;50.514;30.448;2024-02-04T06:24:56;98774.47;;;6.97
49567;BMP280;35472;50.514;30.448;2024-02-04T06:27:21;98779.69;;;7.37
49567;BMP280;35472;50.514;30.448;2024-02-04T06:29:46;98768.47;;;7.50
49567;BMP280;35472;50.514;30.448;2024-02-04T06:32:12;98774.56;;;7.50
49567;BMP280;35472;50.514;30.448;2024-02-04T06:34:38;98769.97;;;7.24
49567;BMP280;35472;50.514;30.448;2024-02-04T06:37:04;98772.25;;;6.91
49567;BMP280;35472;50.514;30.448;2024-02-04T06:39:29;98768.78;;;7.25
49567;BMP280;35472;50.514;30.448;2024-02-04T06:41:54;98769.91;;;7.27
49567;BMP280;35472;50.514;30.448;2024-02-04T06:44:20;98767.50;;;7.06
49567;BMP280;35472;50.514;30.448;2024-02-04T06:46:45;98773.13;;;7.15
49567;BMP280;35472;50.514;30.448;2024-02-04T06:49:11;98770.91;;;7.37
49567;BMP280;35472;50.514;30.448;2024-02-04T06:51:43;98775.63;;;7.29
49567;BMP280;35472;50.514;30.448;2024-02-04T06:54:09;98775.78;;;7.15
49567;BMP280;35472;50.514;30.448;2024-02-04T06:56:39;98769.88;;;6.97
49567;BMP280;35472;50.514;30.448;2024-02-04T06:59:05;98781.06;;;7.22
49567;BMP280;35472;50.514;30.448;2024-02-04T07:01:30;98779.78;;;7.30
49567;BMP280;35472;50.514;30.448;2024-02-04T07:03:55;98780.53;;;7.04
49567;BMP280;35472;50.514;30.448;2024-02-04T07:06:21;98783.72;;;7.53
49567;BMP280;35472;50.514;30.448;2024-02-04T07:08:46;98778.75;;;7.78
49567;BMP280;35472;50.514;30.448;2024-02-04T07:11:12;98780.63;;;7.54
49567;BMP280;35472;50.514;30.448;2024-02-04T07:13:37;98787.47;;;7.55
49567;BMP280;35472;50.514;30.448;2024-02-04T07:16:02;98783.00;;;7.49
49567;BMP280;35472;50.514;30.448;2024-02-04T07:18:28;98788.75;;;7.47
49567;BMP280;35472;50.514;30.448;2024-02-04T07:20:57;98780.72;;;7.47
49567;BMP280;35472;50.514;30.448;2024-02-04T07:23:22;98780.19;;;7.59
49567;BMP280;35472;50.514;30.448;2024-02-04T07:25:48;98781.63;;;7.91
49567;BMP280;35472;50.514;30.448;2024-02-04T07:28:13;98790.56;;;7.80
49567;BMP280;35472;50.514;30.448;2024-02-04T07:30:39;98790.94;;;7.82
49567;BMP280;35472;50.514;30.448;2024-02-04T07:33:04;98785.28;;;7.50
49567;BMP280;35472;50.514;30.448;2024-02-04T07:35:30;98798.91;;;7.59
49567;BMP280;35472;50.514;30.448;2024-02-04T07:37:55;98792.66;;;7.96
49567;BMP280;35472;50.514;30.448;2024-02-04T07:40:20;98791.03;;;7.75
49567;BMP280;35472;50.514;30.448;2024-02-04T07:42:46;98791.97;;;7.88
49567;BMP280;35472;50.514;30.448;2024-02-04T07:45:11;98791.00;;;7.79
49567;BMP280;35472;50.514;30.448;2024-02-04T07:47:37;98786.94;;;7.94
49567;BMP280;35472;50.514;30.448;2024-02-04T07:50:02;98786.25;;;7.86
49567;BMP280;35472;50.514;30.448;2024-02-04T07:52:28;98799.53;;;7.97
49567;BMP280;35472;50.514;30.448;2024-02-04T07:54:53;98793.38;;;7.73
49567;BMP280;35472;50.514;30.448;2024-02-04T07:57:19;98799.34;;;7.84
49567;BMP280;35472;50.514;30.448;2024-02-04T07:59:47;98794.47;;;7.76
49567;BMP280;35472;50.514;30.448;2024-02-04T08:02:15;98795.81;;;7.64
49567;BMP280;35472;50.514;30.448;2024-02-04T08:04:41;98797.44;;;7.55
49567;BMP280;35472;50.514;30.448;2024-02-04T08:07:06;98800.22;;;7.74
49567;BMP280;35472;50.514;30.448;2024-02-04T08:09:32;98797.13;;;7.76
49567;BMP280;35472;50.514;30.448;2024-02-04T08:11:57;98801.16;;;7.87
49567;BMP280;35472;50.514;30.448;2024-02-04T08:14:23;98796.28;;;7.86
49567;BMP280;35472;50.514;30.448;2024-02-04T08:16:48;98800.56;;;7.19
49567;BMP280;35472;50.514;30.448;2024-02-04T08:19:14;98801.56;;;7.63
49567;BMP280;35472;50.514;30.448;2024-02-04T08:21:41;98809.44;;;7.73
49567;BMP280;35472;50.514;30.448;2024-02-04T08:24:07;98803.47;;;7.62
49567;BMP280;35472;50.514;30.448;2024-02-04T08:26:32;98803.28;;;7.46
49567;BMP280;35472;50.514;30.448;2024-02-04T08:28:59;98793.78;;;7.72
49567;BMP280;35472;50.514;30.448;2024-02-04T08:31:25;98796.69;;;7.81
49567;BMP280;35472;50.514;30.448;2024-02-04T08:33:51;98801.84;;;7.68
49567;BMP280;35472;50.514;30.448;2024-02-04T08:36:18;98791.25;;;8.11
49567;BMP280;35472;50.514;30.448;2024-02-04T08:38:44;98790.44;;;8.14
49567;BMP280;35472;50.514;30.448;2024-02-04T08:41:09;98800.50;;;8.53
49567;BMP280;35472;50.514;30.448;2024-02-04T08:43:34;98800.75;;;8.39
49567;BMP280;35472;50.514;30.448;2024-02-04T08:46:00;98797.84;;;8.73
49567;BMP280;35472;50.514;30.448;2024-02-04T08:48:25;98797.16;;;8.26
49567;BMP280;35472;50.514;30.448;2024-02-04T08:50:50;98796.63;;;8.77
49567;BMP280;35472;50.514;30.448;2024-02-04T08:53:16;98790.56;;;8.73
49567;BMP280;35472;50.514;30.448;2024-02-04T08:55:41;98789.44;;;8.71
49567;BMP280;35472;50.514;30.448;2024-02-04T08:58:08;98790.41;;;9.20
49567;BMP280;35472;50.514;30.448;2024-02-04T09:00:34;98797.69;;;8.60
49567;BMP280;35472;50.514;30.448;2024-02-04T09:02:59;98799.72;;;8.96
49567;BMP280;35472;50.514;30.448;2024-02-04T09:05:26;98786.19;;;9.19
49567;BMP280;35472;50.514;30.448;2024-02-04T09:07:54;98789.31;;;9.53
49567;BMP280;35472;50.514;30.448;2024-02-04T09:10:21;98787.03;;;10.00
49567;BMP280;35472;50.514;30.448;2024-02-04T09:12:46;98780.31;;;9.44
49567;BMP280;35472;50.514;30.448;2024-02-04T09:15:12;98785.03;;;9.20
49567;BMP280;35472;50.514;30.448;2024-02-04T09:17:37;98784.25;;;9.03
49567;BMP280;35472;50.514;30.448;2024-02-04T09:20:05;98768.91;;;9.04
49567;BMP280;35472;50.514;30.448;2024-02-04T09:22:31;98776.28;;;8.37
49567;BMP280;35472;50.514;30.448;2024-02-04T09:24:56;98792.25;;;8.21
49567;BMP280;35472;50.514;30.448;2024-02-04T09:27:21;98783.63;;;8.10
49567;BMP280;35472;50.514;30.448;2024-02-04T09:29:47;98784.38;;;8.33
49567;BMP280;35472;50.514;30.448;2024-02-04T09:32:12;98789.03;;;8.53
49567;BMP280;35472;50.514;30.448;2024-02-04T09:34:38;98779.66;;;8.18
49567;BMP280;35472;50.514;30.448;2024-02-04T09:37:04;98779.38;;;8.12
49567;BMP280;35472;50.514;30.448;2024-02-04T09:39:32;98778.63;;;8.35
49567;BMP280;35472;50.514;30.448;2024-02-04T09:41:57;98782.78;;;8.16
49567;BMP280;35472;50.514;30.448;2024-02-04T09:44:24;98775.81;;;8.81
49567;BMP280;35472;50.514;30.448;2024-02-04T09:46:50;98777.91;;;8.94
49567;BMP280;35472;50.514;30.448;2024-02-04T09:49:15;98769.38;;;8.99
49567;BMP280;35472;50.514;30.448;2024-02-04T09:51:41;98774.31;;;9.36
49567;BMP280;35472;50.514;30.448;2024-02-04T09:54:10;98753.06;;;9.09
49567;BMP280;35472;50.514;30.448;2024-02-04T09:56:37;98745.69;;;9.13
49567;BMP280;35472;50.514;30.448;2024-02-04T09:59:05;98757.91;;;9.50
49567;BMP280;35472;50.514;30.448;2024-02-04T10:01:31;98746.66;;;9.55
49567;BMP280;35472;50.514;30.448;2024-02-04T10:03:57;98731.75;;;9.02
49567;BMP280;35472;50.514;30.448;2024-02-04T10:06:22;98718.34;;;8.43
49567;BMP280;35472;50.514;30.448;2024-02-04T10:08:47;98741.47;;;9.12
49567;BMP280;35472;50.514;30.448;2024-02-04T10:11:13;98730.75;;;9.12
49567;BMP280;35472;50.514;30.448;2024-02-04T10:13:46;98719.41;;;9.41
49567;BMP280;35472;50.514;30.448;2024-02-04T10:16:12;98712.44;;;9.43
49567;BMP280;35472;50.514;30.448;2024-02-04T10:18:41;98709.88;;;9.36
49567;BMP280;35472;50.514;30.448;2024-02-04T10:21:19;98696.72;;;9.74
49567;BMP280;35472;50.514;30.448;2024-02-04T10:23:49;98700.09;;;9.46
49567;BMP280;35472;50.514;30.448;2024-02-04T10:26:16;98710.44;;;9.47
49567;BMP280;35472;50.514;30.448;2024-02-04T10:28:47;98700.91;;;9.10
49567;BMP280;35472;50.514;30.448;2024-02-04T10:31:15;98694.47;;;9.24
49567;BMP280;35472;50.514;30.448;2024-02-04T10:33:41;98696.50;;;9.52
49567;BMP280;35472;50.514;30.448;2024-02-04T10:36:06;98689.22;;;8.65
49567;BMP280;35472;50.514;30.448;2024-02-04T10:38:32;98695.41;;;9.50
49567;BMP280;35472;50.514;30.448;2024-02-04T10:41:00;98692.78;;;8.39
49567;BMP280;35472;50.514;30.448;2024-02-04T10:43:33;98677.69;;;8.28
49567;BMP280;35472;50.514;30.448;2024-02-04T10:46:04;98711.97;;;8.37
49567;BMP280;35472;50.514;30.448;2024-02-04T10:48:35;98693.59;;;8.75
49567;BMP280;35472;50.514;30.448;2024-02-04T10:51:12;98705.34;;;8.61
49567;BMP280;35472;50.514;30.448;2024-02-04T10:53:43;98708.34;;;9.03
49567;BMP280;35472;50.514;30.448;2024-02-04T10:56:18;98705.50;;;9.10
49567;BMP280;35472;50.514;30.448;2024-02-04T10:58:46;98730.59;;;8.44
49567;BMP280;35472;50.514;30.448;2024-02-04T11:01:12;98713.38;;;8.22
49567;BMP280;35472;50.514;30.448;2024-02-04T11:03:39;98724.84;;;9.01
49567;BMP280;35472;50.514;30.448;2024-02-04T11:06:05;98722.59;;;8.41
49567;BMP280;35472;50.514;30.448;2024-02-04T11:08:30;98730.66;;;8.60
49567;BMP280;35472;50.514;30.448;2024-02-04T11:10:58;98712.22;;;8.62
49567;BMP280;35472;50.514;30.448;2024-02-04T11:13:23;98718.31;;;8.66
49567;BMP280;35472;50.514;30.448;2024-02-04T11:15:50;98708.50;;;8.17
49567;BMP280;35472;50.514;30.448;2024-02-04T11:24:08;98718.31;;;8.66
49567;BMP280;35472;50.514;30.448;2024-02-04T11:26:38;98725.63;;;9.02
49567;BMP280;35472;50.514;30.448;2024-02-04T11:29:07;98720.63;;;9.20
49567;BMP280;35472;50.514;30.448;2024-02-04T11:31:32;98740.28;;;9.17
49567;BMP280;35472;50.514;30.448;2024-02-04T11:33:58;98730.19;;;9.37
49567;BMP280;35472;50.514;30.448;2024-02-04T11:36:27;98731.19;;;9.11
49567;BMP280;35472;50.514;30.448;2024-02-04T11:38:52;98733.53;;;8.69
49567;BMP280;35472;50.514;30.448;2024-02-04T11:41:24;98716.09;;;8.42
49567;BMP280;35472;50.514;30.448;2024-02-04T11:43:55;98713.75;;;8.99
49567;BMP280;35472;50.514;30.448;2024-02-04T11:46:21;98718.00;;;8.80
49567;BMP280;35472;50.514;30.448;2024-02-04T11:48:53;98717.31;;;8.57
49567;BMP280;35472;50.514;30.448;2024-02-04T11:51:23;98718.19;;;8.30
49567;BMP280;35472;50.514;30.448;2024-02-04T11:53:51;98724.53;;;8.60
49567;BMP280;35472;50.514;30.448;2024-02-04T11:56:18;98718.47;;;8.16
49567;BMP280;35472;50.514;30.448;2024-02-04T11:58:44;98717.44;;;8.89
49567;BMP280;35472;50.514;30.448;2024-02-04T12:01:10;98724.09;;;9.69
49567;BMP280;35472;50.514;30.448;2024-02-04T12:03:36;98736.03;;;9.84
49567;BMP280;35472;50.514;30.448;2024-02-04T12:06:03;98718.47;;;9.79
49567;BMP280;35472;50.514;30.448;2024-02-04T12:08:30;98724.03;;;9.89
49567;BMP280;35472;50.514;30.448;2024-02-04T12:10:57;98715.88;;;9.76
49567;BMP280;35472;50.514;30.448;2024-02-04T12:13:24;98708.84;;;9.66
49567;BMP280;35472;50.514;30.448;2024-02-04T12:15:49;98715.19;;;9.40
49567;BMP280;35472;50.514;30.448;2024-02-04T12:18:15;98714.25;;;9.14
49567;BMP280;35472;50.514;30.448;2024-02-04T12:20:46;98733.41;;;9.48
49567;BMP280;35472;50.514;30.448;2024-02-04T12:23:14;98709.47;;;9.38
49567;BMP280;35472;50.514;30.448;2024-02-04T12:25:39;98745.09;;;9.42
49567;BMP280;35472;50.514;30.448;2024-02-04T12:28:05;98736.06;;;9.16
49567;BMP280;35472;50.514;30.448;2024-02-04T12:30:31;98744.69;;;9.07
49567;BMP280;35472;50.514;30.448;2024-02-04T12:33:00;98744.84;;;8.61
49567;BMP280;35472;50.514;30.448;2024-02-04T12:35:26;98743.59;;;8.65
49567;BMP280;35472;50.514;30.448;2024-02-04T12:37:58;98737.41;;;8.68
49567;BMP280;35472;50.514;30.448;2024-02-04T12:40:25;98744.25;;;8.50
49567;BMP280;35472;50.514;30.448;2024-02-04T12:43:00;98746.47;;;8.35
49567;BMP280;35472;50.514;30.448;2024-02-04T12:45:27;98742.63;;;8.95
49567;BMP280;35472;50.514;30.448;2024-02-04T12:47:55;98746.84;;;8.76
49567;BMP280;35472;50.514;30.448;2024-02-04T12:50:20;98752.81;;;8.64
49567;BMP280;35472;50.514;30.448;2024-02-04T12:53:02;98755.97;;;8.16
49567;BMP280;35472;50.514;30.448;2024-02-04T12:55:30;98753.78;;;8.54
49567;BMP280;35472;50.514;30.448;2024-02-04T12:58:09;98758.47;;;8.27
49567;BMP280;35472;50.514;30.448;2024-02-04T13:00:38;98757.75;;;8.46
49567;BMP280;35472;50.514;30.448;2024-02-04T13:03:05;98750.44;;;8.27
49567;BMP280;35472;50.514;30.448;2024-02-04T13:05:33;98750.13;;;8.64
49567;BMP280;35472;50.514;30.448;2024-02-04T13:08:02;98756.19;;;8.68
49567;BMP280;35472;50.514;30.448;2024-02-04T13:10:32;98760.50;;;8.62
49567;BMP280;35472;50.514;30.448;2024-02-04T13:13:08;98749.75;;;8.62
49567;BMP280;35472;50.514;30.448;2024-02-04T13:15:39;98751.25;;;8.67
49567;BMP280;35472;50.514;30.448;2024-02-04T13:18:07;98760.97;;;8.57
49567;BMP280;35472;50.514;30.448;2024-02-04T13:20:33;98755.66;;;8.34
49567;BMP280;35472;50.514;30.448;2024-02-04T13:22:58;98743.66;;;8.42
49567;BMP280;35472;50.514;30.448;2024-02-04T13:25:25;98762.22;;;8.53
49567;BMP280;35472;50.514;30.448;2024-02-04T13:27:51;98754.84;;;8.37
49567;BMP280;35472;50.514;30.448;2024-02-04T13:30:19;98746.94;;;8.07
49567;BMP280;35472;50.514;30.448;2024-02-04T13:32:45;98755.06;;;8.46
49567;BMP280;35472;50.514;30.448;2024-02-04T13:35:10;98760.59;;;8.59
49567;BMP280;35472;50.514;30.448;2024-02-04T13:37:37;98758.34;;;8.11
49567;BMP280;35472;50.514;30.448;2024-02-04T13:40:06;98742.47;;;8.43
49567;BMP280;35472;50.514;30.448;2024-02-04T13:42:34;98745.75;;;8.31
49567;BMP280;35472;50.514;30.448;2024-02-04T13:45:00;98756.88;;;8.29
49567;BMP280;35472;50.514;30.448;2024-02-04T13:47:27;98749.72;;;8.46
49567;BMP280;35472;50.514;30.448;2024-02-04T13:49:52;98744.38;;;8.23
49567;BMP280;35472;50.514;30.448;2024-02-04T13:52:17;98745.56;;;8.18
49567;BMP280;35472;50.514;30.448;2024-02-04T13:54:42;98747.88;;;8.40
49567;BMP280;35472;50.514;30.448;2024-02-04T13:57:09;98739.63;;;8.30
49567;BMP280;35472;50.514;30.448;2024-02-04T13:59:34;98743.00;;;8.11
49567;BMP280;35472;50.514;30.448;2024-02-04T14:02:00;98745.09;;;8.04
49567;BMP280;35472;50.514;30.448;2024-02-04T14:04:25;98751.78;;;8.15
49567;BMP280;35472;50.514;30.448;2024-02-04T14:06:52;98756.47;;;8.31
49567;BMP280;35472;50.514;30.448;2024-02-04T14:09:18;98743.84;;;8.08
49567;BMP280;35472;50.514;30.448;2024-02-04T14:11:44;98746.63;;;7.78
49567;BMP280;35472;50.514;30.448;2024-02-04T14:14:09;98751.59;;;8.03